createdAt,value
2022-11-10T00:03:08.180Z,9.37
2022-11-10T00:06:03.496Z,9.43
2022-11-10T00:08:55.119Z,9.44
2022-11-10T00:11:51.401Z,9.44
2022-11-10T00:14:57.826Z,9.44
2022-11-10T00:17:50.161Z,9.44
2022-11-10T00:20:41.767Z,9.49
2022-11-10T00:23:34.593Z,9.52
2022-11-10T00:26:35.646Z,9.55
2022-11-10T00:29:28.010Z,9.55
2022-11-10T00:32:18.220Z,9.51
2022-11-10T00:35:23.029Z,9.47
2022-11-10T00:38:14.730Z,9.44
2022-11-10T00:41:05.292Z,9.44
2022-11-10T00:44:00.399Z,9.47
2022-11-10T00:46:52.592Z,9.51
2022-11-10T00:49:40.321Z,9.56
2022-11-10T00:52:32.878Z,9.59
2022-11-10T00:55:53.633Z,9.59
2022-11-10T00:59:14.577Z,9.58
2022-11-10T01:02:02.736Z,9.60
2022-11-10T01:04:50.733Z,9.64
2022-11-10T01:07:41.364Z,9.66
2022-11-10T01:10:30.429Z,9.68
2022-11-10T01:13:22.704Z,9.69
2022-11-10T01:16:17.354Z,9.62
2022-11-10T01:19:05.084Z,9.62
2022-11-10T01:21:55.668Z,9.66
2022-11-10T01:24:46.222Z,9.68
2022-11-10T01:27:34.921Z,9.70
2022-11-10T01:30:22.787Z,9.72
2022-11-10T01:33:10.107Z,9.73
2022-11-10T01:36:00.287Z,9.73
2022-11-10T01:38:48.125Z,9.74
2022-11-10T01:41:36.016Z,9.73
2022-11-10T01:44:26.210Z,9.74
2022-11-10T01:47:14.274Z,9.76
2022-11-10T01:50:05.107Z,9.78
2022-11-10T01:53:00.249Z,9.77
2022-11-10T01:55:50.073Z,9.77
2022-11-10T01:58:45.227Z,9.79
2022-11-10T02:01:33.109Z,9.80
2022-11-10T02:04:22.290Z,9.83
2022-11-10T02:07:11.410Z,9.84
2022-11-10T02:10:01.826Z,9.86
2022-11-10T02:12:50.422Z,9.89
2022-11-10T02:15:40.142Z,9.91
2022-11-10T02:18:28.255Z,9.94
2022-11-10T02:21:21.474Z,9.96
2022-11-10T02:24:09.291Z,9.98
2022-11-10T02:26:58.019Z,9.99
2022-11-10T02:29:46.055Z,10.03
2022-11-10T02:32:33.989Z,10.07
2022-11-10T02:35:21.574Z,10.11
2022-11-10T02:38:09.667Z,10.12
2022-11-10T02:40:59.281Z,10.12
2022-11-10T02:43:47.130Z,10.14
2022-11-10T02:46:37.683Z,10.16
2022-11-10T02:49:25.741Z,10.18
2022-11-10T02:52:13.752Z,10.22
2022-11-10T02:55:01.474Z,10.28
2022-11-10T02:57:49.152Z,10.34
2022-11-10T03:00:38.420Z,10.39
2022-11-10T03:03:29.033Z,10.43
2022-11-10T03:06:16.699Z,10.47
2022-11-10T03:09:04.776Z,10.52
2022-11-10T03:11:52.879Z,10.57
2022-11-10T03:14:40.788Z,10.61
2022-11-10T03:17:28.805Z,10.62
2022-11-10T03:20:17.778Z,10.64
2022-11-10T03:23:06.151Z,10.67
2022-11-10T03:25:53.734Z,10.69
2022-11-10T03:28:42.086Z,10.71
2022-11-10T03:31:30.169Z,10.73
2022-11-10T03:34:18.942Z,10.75
2022-11-10T03:37:15.938Z,10.72
2022-11-10T03:40:04.504Z,10.70
2022-11-10T03:42:54.765Z,10.68
2022-11-10T03:45:45.617Z,10.70
2022-11-10T03:48:33.078Z,10.74
2022-11-10T03:51:21.087Z,10.76
2022-11-10T03:54:09.305Z,10.77
2022-11-10T03:57:01.779Z,10.81
2022-11-10T03:59:51.155Z,10.85
2022-11-10T04:02:39.640Z,10.86
2022-11-10T04:05:47.810Z,10.90
2022-11-10T04:08:54.165Z,10.94
2022-11-10T04:12:00.581Z,10.94
2022-11-10T04:15:07.767Z,10.95
2022-11-10T04:18:21.266Z,10.93
2022-11-10T04:21:11.165Z,10.88
2022-11-10T04:24:00.944Z,10.87
2022-11-10T04:26:53.062Z,10.86
2022-11-10T04:29:44.641Z,10.85
2022-11-10T04:32:37.755Z,10.86
2022-11-10T04:35:28.442Z,10.85
2022-11-10T04:38:19.263Z,10.87
2022-11-10T04:41:16.202Z,10.90
2022-11-10T04:44:04.442Z,10.92
2022-11-10T04:46:54.683Z,10.94
2022-11-10T04:49:42.566Z,10.97
2022-11-10T04:52:32.694Z,10.99
2022-11-10T04:55:21.770Z,11.01
2022-11-10T04:58:12.031Z,11.01
2022-11-10T05:00:59.807Z,11.00
2022-11-10T05:03:49.427Z,11.00
2022-11-10T05:06:37.135Z,10.99
2022-11-10T05:09:25.364Z,10.98
2022-11-10T05:12:18.512Z,10.98
2022-11-10T05:15:10.388Z,10.97
2022-11-10T05:17:58.736Z,10.98
2022-11-10T05:20:49.531Z,10.99
2022-11-10T05:23:41.689Z,11.00
2022-11-10T05:26:39.348Z,11.00
2022-11-10T05:29:27.300Z,10.90
2022-11-10T05:32:15.128Z,10.91
2022-11-10T05:35:05.425Z,10.95
2022-11-10T05:37:57.623Z,10.98
2022-11-10T05:40:49.802Z,10.99
2022-11-10T05:43:43.643Z,10.91
2022-11-10T05:46:32.206Z,10.93
2022-11-10T05:49:21.916Z,10.96
2022-11-10T05:52:12.099Z,10.99
2022-11-10T05:55:11.742Z,11.01
2022-11-10T05:58:01.675Z,11.01
2022-11-10T06:00:50.562Z,11.02
2022-11-10T06:03:38.579Z,11.06
2022-11-10T06:06:26.523Z,11.07
2022-11-10T06:09:15.681Z,11.10
2022-11-10T06:12:07.512Z,11.13
2022-11-10T06:15:00.491Z,11.15
2022-11-10T06:17:51.016Z,11.15
2022-11-10T06:20:38.708Z,11.16
2022-11-10T06:23:26.687Z,11.15
2022-11-10T06:26:16.291Z,11.15
2022-11-10T06:29:04.538Z,11.14
2022-11-10T06:31:52.352Z,11.16
2022-11-10T06:34:45.665Z,11.17
2022-11-10T06:37:33.859Z,11.19
2022-11-10T06:40:25.105Z,11.19
2022-11-10T06:43:13.051Z,11.20
2022-11-10T06:46:10.785Z,11.21
2022-11-10T06:49:00.324Z,11.22
2022-11-10T06:51:53.739Z,11.24
2022-11-10T06:54:43.962Z,11.24
2022-11-10T06:57:39.204Z,11.25
2022-11-10T07:00:29.743Z,11.26
2022-11-10T07:03:17.579Z,11.28
2022-11-10T07:06:10.747Z,11.31
2022-11-10T07:08:58.559Z,11.35
2022-11-10T07:11:48.983Z,11.39
2022-11-10T07:14:39.244Z,11.41
2022-11-10T07:17:29.850Z,11.41
2022-11-10T07:20:18.085Z,11.44
2022-11-10T07:23:16.611Z,11.46
2022-11-10T07:26:12.636Z,11.48
2022-11-10T07:29:17.039Z,11.48
2022-11-10T07:32:16.947Z,11.51
2022-11-10T07:35:09.048Z,11.54
2022-11-10T07:38:07.467Z,11.58
2022-11-10T07:41:18.758Z,11.60
2022-11-10T07:44:09.121Z,11.62
2022-11-10T07:47:01.044Z,11.65
2022-11-10T07:50:00.815Z,11.69
2022-11-10T07:53:17.479Z,11.72
2022-11-10T07:56:06.559Z,11.71
2022-11-10T07:58:55.500Z,11.70
2022-11-10T08:01:46.901Z,11.71
2022-11-10T08:04:35.938Z,11.71
2022-11-10T08:07:47.816Z,11.74
2022-11-10T08:10:48.822Z,11.74
2022-11-10T08:13:39.410Z,11.76
2022-11-10T08:16:33.282Z,11.78
2022-11-10T08:19:36.612Z,11.78
2022-11-10T08:22:24.748Z,11.78
2022-11-10T08:26:25.456Z,11.78
2022-11-10T08:29:45.900Z,11.74
2022-11-10T08:32:37.312Z,11.78
2022-11-10T08:35:35.264Z,11.87
2022-11-10T08:38:24.864Z,12.03
2022-11-10T08:41:16.157Z,12.21
2022-11-10T08:44:10.704Z,12.38
2022-11-10T08:47:04.241Z,12.52
2022-11-10T08:49:52.608Z,12.62
2022-11-10T08:52:43.373Z,12.71
2022-11-10T08:55:33.922Z,12.82
2022-11-10T08:58:24.364Z,12.93
2022-11-10T09:01:24.000Z,13.11
2022-11-10T09:04:16.127Z,13.25
2022-11-10T09:07:05.179Z,13.36
2022-11-10T09:10:06.641Z,13.46
2022-11-10T09:13:02.015Z,13.57
2022-11-10T09:16:07.021Z,13.65
2022-11-10T09:19:01.807Z,13.66
2022-11-10T09:22:05.123Z,13.66
2022-11-10T09:24:56.750Z,13.60
2022-11-10T09:27:52.221Z,13.59
2022-11-10T09:31:05.550Z,13.61
2022-11-10T09:34:04.844Z,13.62
2022-11-10T09:36:54.289Z,13.61
2022-11-10T09:39:46.186Z,13.63
2022-11-10T09:42:47.539Z,13.64
2022-11-10T09:45:43.220Z,13.66
2022-11-10T09:48:43.179Z,13.67
2022-11-10T09:51:56.510Z,13.70
2022-11-10T09:55:10.822Z,13.70
2022-11-10T09:58:04.886Z,13.71
2022-11-10T10:01:21.484Z,13.71
2022-11-10T10:04:48.812Z,13.72
2022-11-10T10:07:55.070Z,13.76
2022-11-10T10:10:52.080Z,13.80
2022-11-10T10:14:15.914Z,13.84
2022-11-10T10:17:48.171Z,13.84
2022-11-10T10:21:20.891Z,13.86
2022-11-10T10:24:22.829Z,13.82
2022-11-10T10:27:28.940Z,13.82
2022-11-10T10:30:24.502Z,13.80
2022-11-10T10:33:28.370Z,13.85
2022-11-10T10:36:32.242Z,13.88
2022-11-10T10:39:44.892Z,13.90
2022-11-10T10:42:36.464Z,13.98
2022-11-10T10:45:40.767Z,13.98
2022-11-10T10:48:37.361Z,13.98
2022-11-10T10:51:36.899Z,13.99
2022-11-10T10:54:39.474Z,14.01
2022-11-10T10:57:32.328Z,14.09
2022-11-10T11:00:27.456Z,14.19
2022-11-10T11:03:45.928Z,14.28
2022-11-10T11:06:36.051Z,14.42
2022-11-10T11:09:40.293Z,14.49
2022-11-10T11:12:35.325Z,14.49
2022-11-10T11:15:39.500Z,14.42
2022-11-10T11:18:32.470Z,14.26
2022-11-10T11:21:44.918Z,14.17
2022-11-10T11:25:18.161Z,14.10
2022-11-10T11:28:16.430Z,14.03
2022-11-10T11:31:28.499Z,13.99
2022-11-10T11:34:58.233Z,13.94
2022-11-10T11:38:16.198Z,13.87
2022-11-10T11:41:24.647Z,13.87
2022-11-10T11:44:48.687Z,13.86
2022-11-10T11:52:35.663Z,13.81
2022-11-10T11:55:37.565Z,13.90
2022-11-10T11:58:48.366Z,14.02
2022-11-10T12:02:39.147Z,14.13
2022-11-10T12:05:39.318Z,14.25
2022-11-10T12:08:43.772Z,14.35
2022-11-10T12:12:02.075Z,14.41
2022-11-10T12:15:34.532Z,14.38
2022-11-10T12:18:34.845Z,14.33
2022-11-10T12:22:11.236Z,14.29
2022-11-10T12:25:06.087Z,14.19
2022-11-10T12:28:19.238Z,14.17
2022-11-10T12:31:18.545Z,14.17
2022-11-10T12:34:45.103Z,14.17
2022-11-10T12:37:53.146Z,14.15
2022-11-10T12:40:50.983Z,14.10
2022-11-10T12:44:20.299Z,14.14
2022-11-10T12:47:16.546Z,14.17
2022-11-10T12:50:16.233Z,14.24
2022-11-10T12:53:16.044Z,14.31
2022-11-10T12:56:24.262Z,14.36
2022-11-10T12:59:21.237Z,14.37
2022-11-10T13:02:44.673Z,14.37
2022-11-10T13:05:42.235Z,14.32
2022-11-10T13:08:47.375Z,14.23
2022-11-10T13:11:37.108Z,14.18
2022-11-10T13:14:30.122Z,14.15
2022-11-10T13:17:27.428Z,14.14
2022-11-10T13:20:39.813Z,14.13
2022-11-10T13:23:29.693Z,14.09
2022-11-10T13:26:45.214Z,13.96
2022-11-10T13:29:53.858Z,13.88
2022-11-10T13:32:42.028Z,13.84
2022-11-10T13:35:29.728Z,13.80
2022-11-10T13:42:08.807Z,13.70
2022-11-10T13:45:35.801Z,13.67
2022-11-10T13:49:11.603Z,13.62
2022-11-10T13:52:15.685Z,13.54
2022-11-10T13:55:48.313Z,13.48
2022-11-10T13:58:36.865Z,13.40
2022-11-10T14:01:30.510Z,13.34
2022-11-10T14:04:49.050Z,13.26
2022-11-10T14:07:46.704Z,13.18
2022-11-10T14:10:43.006Z,13.14
2022-11-10T14:14:11.380Z,13.10
2022-11-10T14:16:59.230Z,13.05
2022-11-10T14:19:47.428Z,13.02
2022-11-10T14:22:44.554Z,12.99
2022-11-10T14:25:39.657Z,12.93
2022-11-10T14:28:32.512Z,12.87
2022-11-10T14:31:25.375Z,12.83
2022-11-10T14:34:18.642Z,12.78
2022-11-10T14:37:06.786Z,12.72
2022-11-10T14:40:00.784Z,12.68
2022-11-10T14:42:51.623Z,12.64
2022-11-10T14:45:51.181Z,12.62
2022-11-10T14:48:39.400Z,12.59
2022-11-10T14:51:31.368Z,12.57
2022-11-10T14:54:28.240Z,12.54
2022-11-10T14:57:18.919Z,12.50
2022-11-10T15:00:25.412Z,12.46
2022-11-10T15:03:34.785Z,12.39
2022-11-10T15:06:22.623Z,12.30
2022-11-10T15:09:40.242Z,12.25
2022-11-10T15:12:27.987Z,12.19
2022-11-10T15:15:22.956Z,12.16
2022-11-10T15:18:29.461Z,12.12
2022-11-10T15:21:22.996Z,12.08
2022-11-10T15:24:20.241Z,12.04
2022-11-10T15:27:27.718Z,11.99
2022-11-10T15:30:24.560Z,11.94
2022-11-10T15:33:14.626Z,11.90
2022-11-10T15:36:40.799Z,11.86
2022-11-10T15:39:30.669Z,11.76
2022-11-10T15:42:24.936Z,11.68
2022-11-10T15:45:17.870Z,11.62
2022-11-10T15:48:27.225Z,11.57
2022-11-10T15:51:24.699Z,11.53
2022-11-10T15:54:14.805Z,11.51
2022-11-10T15:57:02.748Z,11.51
2022-11-10T15:59:50.591Z,11.50
2022-11-10T16:02:39.569Z,11.49
2022-11-10T16:05:30.738Z,11.47
2022-11-10T16:08:23.074Z,11.46
2022-11-10T16:11:22.706Z,11.42
2022-11-10T16:14:15.696Z,11.38
2022-11-10T16:17:03.433Z,11.35
2022-11-10T16:19:51.005Z,11.33
2022-11-10T16:22:41.910Z,11.30
2022-11-10T16:25:29.908Z,11.27
2022-11-10T16:28:23.812Z,11.22
2022-11-10T16:31:16.458Z,11.18
2022-11-10T16:34:05.809Z,11.16
2022-11-10T16:36:53.362Z,11.15
2022-11-10T16:39:41.163Z,11.13
2022-11-10T16:42:33.289Z,11.10
2022-11-10T16:45:31.338Z,11.09
2022-11-10T16:48:23.878Z,11.07
2022-11-10T16:51:22.230Z,11.05
2022-11-10T16:54:10.773Z,11.04
2022-11-10T16:57:16.585Z,11.03
2022-11-10T17:00:05.050Z,10.98
2022-11-10T17:03:05.538Z,10.96
2022-11-10T17:05:54.148Z,10.95
2022-11-10T17:08:43.715Z,10.94
2022-11-10T17:11:30.974Z,10.91
2022-11-10T17:14:20.691Z,10.90
2022-11-10T17:17:18.603Z,10.87
2022-11-10T17:20:08.702Z,10.85
2022-11-10T17:22:57.019Z,10.84
2022-11-10T17:25:57.193Z,10.84
2022-11-10T17:28:48.457Z,10.81
2022-11-10T17:31:42.634Z,10.79
2022-11-10T17:34:35.870Z,10.77
2022-11-10T17:37:28.738Z,10.73
2022-11-10T17:40:31.557Z,10.65
2022-11-10T17:43:34.627Z,10.58
2022-11-10T17:46:27.222Z,10.53
2022-11-10T17:49:18.110Z,10.51
2022-11-10T17:52:18.326Z,10.48
2022-11-10T17:55:07.692Z,10.49
2022-11-10T17:58:00.713Z,10.49
2022-11-10T18:00:50.551Z,10.50
2022-11-10T18:03:38.459Z,10.51
2022-11-10T18:06:25.971Z,10.55
2022-11-10T18:09:13.527Z,10.59
2022-11-10T18:12:01.067Z,10.62
2022-11-10T18:14:49.148Z,10.66
2022-11-10T18:17:36.579Z,10.70
2022-11-10T18:20:24.623Z,10.72
2022-11-10T18:23:13.389Z,10.75
2022-11-10T18:26:10.467Z,10.76
2022-11-10T18:29:05.677Z,10.78
2022-11-10T18:31:53.300Z,10.79
2022-11-10T18:34:42.981Z,10.80
2022-11-10T18:37:38.794Z,10.83
2022-11-10T18:40:29.834Z,10.81
2022-11-10T18:43:21.147Z,10.82
2022-11-10T18:46:12.334Z,10.82
2022-11-10T18:49:01.473Z,10.83
2022-11-10T18:51:49.519Z,10.84
2022-11-10T18:54:37.088Z,10.87
2022-11-10T18:57:25.207Z,10.92
2022-11-10T19:00:19.874Z,10.93
2022-11-10T19:03:12.129Z,10.95
2022-11-10T19:06:01.692Z,10.94
2022-11-10T19:08:49.961Z,10.91
2022-11-10T19:11:38.627Z,10.89
2022-11-10T19:14:26.772Z,10.87
2022-11-10T19:17:17.506Z,10.89
2022-11-10T19:20:05.885Z,10.91
2022-11-10T19:22:55.861Z,10.93
2022-11-10T19:25:47.061Z,10.95
2022-11-10T19:28:35.015Z,10.97
2022-11-10T19:31:25.515Z,10.98
2022-11-10T19:34:18.705Z,10.99
2022-11-10T19:37:08.594Z,10.99
2022-11-10T19:39:56.752Z,11.00
2022-11-10T19:42:45.553Z,11.01
2022-11-10T19:45:34.692Z,11.03
2022-11-10T19:48:28.151Z,11.04
2022-11-10T19:51:20.486Z,11.00
2022-11-10T19:54:12.871Z,11.03
2022-11-10T19:57:07.525Z,11.01
2022-11-10T19:59:55.632Z,10.98
2022-11-10T20:02:46.026Z,10.96
2022-11-10T20:05:35.171Z,10.91
2022-11-10T20:08:23.531Z,10.88
2022-11-10T20:11:22.219Z,10.87
2022-11-10T20:14:20.280Z,10.83
2022-11-10T20:17:17.411Z,10.81
2022-11-10T20:20:12.180Z,10.76
2022-11-10T20:23:23.244Z,10.74
2022-11-10T20:26:19.430Z,10.72
2022-11-10T20:29:07.850Z,10.71
2022-11-10T20:31:58.976Z,10.71
2022-11-10T20:34:47.063Z,10.70
2022-11-10T20:37:37.727Z,10.66
2022-11-10T20:40:43.502Z,10.61
2022-11-10T20:43:38.023Z,10.56
2022-11-10T20:46:54.065Z,10.54
2022-11-10T20:49:39.400Z,10.50
2022-11-10T20:52:27.086Z,10.47
2022-11-10T20:55:22.131Z,10.45
2022-11-10T20:58:28.010Z,10.41
2022-11-10T21:01:16.626Z,10.40
2022-11-10T21:04:06.330Z,10.38
2022-11-10T21:06:53.959Z,10.37
2022-11-10T21:09:44.764Z,10.36
2022-11-10T21:12:50.929Z,10.34
2022-11-10T21:15:43.421Z,10.34
2022-11-10T21:18:36.326Z,10.30
2022-11-10T21:21:34.146Z,10.28
2022-11-10T21:24:29.569Z,10.25
2022-11-10T21:27:17.629Z,10.24
2022-11-10T21:30:10.113Z,10.23
2022-11-10T21:33:00.706Z,10.20
2022-11-10T21:35:48.526Z,10.17
2022-11-10T21:38:39.989Z,10.10
2022-11-10T21:41:27.264Z,10.04
2022-11-10T21:44:15.219Z,9.94
2022-11-10T21:47:05.482Z,9.86
2022-11-10T21:49:56.496Z,9.76
2022-11-10T21:52:46.198Z,9.67
2022-11-10T21:55:33.893Z,9.62
2022-11-10T21:58:22.525Z,9.53
2022-11-10T22:01:24.089Z,9.46
2022-11-10T22:04:15.126Z,9.39
2022-11-10T22:07:23.636Z,9.31
2022-11-10T22:10:30.485Z,9.25
2022-11-10T22:13:39.268Z,9.18
2022-11-10T22:16:52.890Z,9.10
2022-11-10T22:19:41.121Z,9.01
2022-11-10T22:22:28.915Z,8.98
2022-11-10T22:25:17.893Z,8.95
2022-11-10T22:28:05.955Z,8.92
2022-11-10T22:30:53.836Z,8.89
2022-11-10T22:33:43.196Z,8.85
2022-11-10T22:36:34.523Z,8.81
2022-11-10T22:39:23.214Z,8.79
2022-11-10T22:42:32.793Z,8.78
2022-11-10T22:45:20.387Z,8.76
2022-11-10T22:48:26.034Z,8.73
2022-11-10T22:51:13.516Z,8.71
2022-11-10T22:54:02.369Z,8.71
2022-11-10T22:56:51.662Z,8.73
2022-11-10T22:59:39.236Z,8.76
2022-11-10T23:02:27.314Z,8.78
2022-11-10T23:05:15.624Z,8.79
2022-11-10T23:08:03.960Z,8.81
2022-11-10T23:11:04.380Z,8.84
2022-11-10T23:13:52.942Z,8.86
2022-11-10T23:16:40.727Z,8.89
2022-11-10T23:19:28.583Z,8.92
2022-11-10T23:22:18.936Z,8.95
2022-11-10T23:25:07.650Z,8.97
2022-11-10T23:27:56.565Z,8.99
2022-11-10T23:30:44.279Z,9.00
2022-11-10T23:33:33.547Z,9.01
2022-11-10T23:36:26.581Z,9.01
2022-11-10T23:39:14.048Z,8.99
2022-11-10T23:42:01.706Z,8.98
2022-11-10T23:44:49.481Z,8.97
2022-11-10T23:47:36.926Z,8.95
2022-11-10T23:50:28.840Z,8.94
2022-11-10T23:53:19.296Z,8.93
2022-11-10T23:56:12.106Z,8.91
2022-11-10T23:59:02.215Z,8.89
